sensor_id;sensor_type;location;lat;lon;timestamp;P1;durP1;ratioP1;P2;durP2;ratioP2
12445;SDS011;6287;50.984;7.022;2023-02-19T00:01:10;2.63;;;2.43;;
12445;SDS011;6287;50.984;7.022;2023-02-19T00:03:51;2.50;;;2.10;;
12445;SDS011;6287;50.984;7.022;2023-02-19T00:06:23;2.63;;;2.17;;
12445;SDS011;6287;50.984;7.022;2023-02-19T00:08:55;2.87;;;2.57;;
12445;SDS011;6287;50.984;7.022;2023-02-19T00:11:22;2.90;;;2.70;;
12445;SDS011;6287;50.984;7.022;2023-02-19T00:13:54;3.60;;;3.07;;
12445;SDS011;6287;50.984;7.022;2023-02-19T00:18:52;4.03;;;3.07;;
12445;SDS011;6287;50.984;7.022;2023-02-19T00:21:21;3.23;;;2.83;;
12445;SDS011;6287;50.984;7.022;2023-02-19T00:23:49;2.87;;;2.63;;
12445;SDS011;6287;50.984;7.022;2023-02-19T00:26:15;3.57;;;3.00;;
12445;SDS011;6287;50.984;7.022;2023-02-19T00:28:41;3.07;;;2.83;;
12445;SDS011;6287;50.984;7.022;2023-02-19T00:31:30;3.37;;;3.00;;
12445;SDS011;6287;50.984;7.022;2023-02-19T00:34:00;3.43;;;2.97;;
12445;SDS011;6287;50.984;7.022;2023-02-19T00:36:30;3.13;;;2.80;;
12445;SDS011;6287;50.984;7.022;2023-02-19T00:39:00;3.97;;;3.00;;
12445;SDS011;6287;50.984;7.022;2023-02-19T00:41:28;4.30;;;3.10;;
12445;SDS011;6287;50.984;7.022;2023-02-19T00:43:57;3.37;;;3.07;;
12445;SDS011;6287;50.984;7.022;2023-02-19T00:49:02;3.57;;;2.90;;
12445;SDS011;6287;50.984;7.022;2023-02-19T00:51:29;3.60;;;3.00;;
12445;SDS011;6287;50.984;7.022;2023-02-19T00:53:57;3.23;;;2.63;;
12445;SDS011;6287;50.984;7.022;2023-02-19T00:56:23;3.43;;;2.83;;
12445;SDS011;6287;50.984;7.022;2023-02-19T00:58:49;4.13;;;2.80;;
12445;SDS011;6287;50.984;7.022;2023-02-19T01:01:20;3.17;;;2.87;;
12445;SDS011;6287;50.984;7.022;2023-02-19T01:03:46;3.93;;;2.90;;
12445;SDS011;6287;50.984;7.022;2023-02-19T01:06:14;3.40;;;3.10;;
12445;SDS011;6287;50.984;7.022;2023-02-19T01:08:45;3.27;;;2.97;;
12445;SDS011;6287;50.984;7.022;2023-02-19T01:11:13;3.50;;;3.20;;
12445;SDS011;6287;50.984;7.022;2023-02-19T01:13:42;3.87;;;3.10;;
12445;SDS011;6287;50.984;7.022;2023-02-19T01:18:38;3.47;;;3.00;;
12445;SDS011;6287;50.984;7.022;2023-02-19T01:21:08;3.53;;;2.90;;
12445;SDS011;6287;50.984;7.022;2023-02-19T01:23:40;4.23;;;2.90;;
12445;SDS011;6287;50.984;7.022;2023-02-19T01:26:07;2.53;;;2.33;;
12445;SDS011;6287;50.984;7.022;2023-02-19T01:28:35;3.07;;;2.53;;
12445;SDS011;6287;50.984;7.022;2023-02-19T01:31:05;2.90;;;2.53;;
12445;SDS011;6287;50.984;7.022;2023-02-19T01:33:32;3.33;;;2.50;;
12445;SDS011;6287;50.984;7.022;2023-02-19T01:35:58;2.70;;;2.50;;
12445;SDS011;6287;50.984;7.022;2023-02-19T01:38:26;3.77;;;2.63;;
12445;SDS011;6287;50.984;7.022;2023-02-19T01:40:59;3.53;;;2.40;;
12445;SDS011;6287;50.984;7.022;2023-02-19T01:43:32;2.90;;;2.60;;
12445;SDS011;6287;50.984;7.022;2023-02-19T01:46:18;3.67;;;2.80;;
12445;SDS011;6287;50.984;7.022;2023-02-19T01:48:50;3.17;;;2.77;;
12445;SDS011;6287;50.984;7.022;2023-02-19T01:51:20;2.70;;;2.50;;
12445;SDS011;6287;50.984;7.022;2023-02-19T01:53:53;3.37;;;2.67;;
12445;SDS011;6287;50.984;7.022;2023-02-19T01:56:22;2.73;;;2.47;;
12445;SDS011;6287;50.984;7.022;2023-02-19T01:58:53;2.87;;;2.40;;
12445;SDS011;6287;50.984;7.022;2023-02-19T02:01:19;3.03;;;2.60;;
12445;SDS011;6287;50.984;7.022;2023-02-19T02:03:46;4.33;;;2.80;;
12445;SDS011;6287;50.984;7.022;2023-02-19T02:06:18;3.77;;;2.33;;
12445;SDS011;6287;50.984;7.022;2023-02-19T02:08:48;3.67;;;2.47;;
12445;SDS011;6287;50.984;7.022;2023-02-19T02:11:35;4.30;;;2.00;;
12445;SDS011;6287;50.984;7.022;2023-02-19T02:14:02;2.97;;;2.40;;
12445;SDS011;6287;50.984;7.022;2023-02-19T02:32:37;6.03;;;3.33;;
12445;SDS011;6287;50.984;7.022;2023-02-19T02:35:17;3.60;;;2.80;;
12445;SDS011;6287;50.984;7.022;2023-02-19T02:37:49;4.80;;;3.50;;
12445;SDS011;6287;50.984;7.022;2023-02-19T02:40:19;6.27;;;3.50;;
12445;SDS011;6287;50.984;7.022;2023-02-19T02:42:51;7.50;;;3.37;;
12445;SDS011;6287;50.984;7.022;2023-02-19T02:45:28;5.07;;;3.53;;
12445;SDS011;6287;50.984;7.022;2023-02-19T02:50:36;3.37;;;2.87;;
12445;SDS011;6287;50.984;7.022;2023-02-19T02:53:14;4.20;;;3.30;;
12445;SDS011;6287;50.984;7.022;2023-02-19T02:56:06;4.20;;;3.07;;
12445;SDS011;6287;50.984;7.022;2023-02-19T02:58:34;5.73;;;3.57;;
12445;SDS011;6287;50.984;7.022;2023-02-19T03:01:02;7.87;;;3.90;;
12445;SDS011;6287;50.984;7.022;2023-02-19T03:03:50;5.67;;;3.57;;
12445;SDS011;6287;50.984;7.022;2023-02-19T03:06:30;5.00;;;3.63;;
12445;SDS011;6287;50.984;7.022;2023-02-19T03:11:32;6.23;;;3.60;;
12445;SDS011;6287;50.984;7.022;2023-02-19T03:14:21;5.33;;;3.53;;
12445;SDS011;6287;50.984;7.022;2023-02-19T03:17:15;4.67;;;3.10;;
12445;SDS011;6287;50.984;7.022;2023-02-19T03:20:06;5.37;;;3.77;;
12445;SDS011;6287;50.984;7.022;2023-02-19T03:22:37;6.07;;;3.93;;
12445;SDS011;6287;50.984;7.022;2023-02-19T03:25:08;5.57;;;3.73;;
12445;SDS011;6287;50.984;7.022;2023-02-19T03:27:56;7.20;;;4.57;;
12445;SDS011;6287;50.984;7.022;2023-02-19T03:30:27;9.87;;;4.50;;
12445;SDS011;6287;50.984;7.022;2023-02-19T03:35:57;9.93;;;5.00;;
12445;SDS011;6287;50.984;7.022;2023-02-19T03:44:44;6.67;;;4.30;;
12445;SDS011;6287;50.984;7.022;2023-02-19T03:47:18;8.00;;;4.70;;
12445;SDS011;6287;50.984;7.022;2023-02-19T04:01:52;11.97;;;5.73;;
12445;SDS011;6287;50.984;7.022;2023-02-19T04:04:49;11.43;;;5.30;;
12445;SDS011;6287;50.984;7.022;2023-02-19T04:07:14;9.97;;;6.10;;
12445;SDS011;6287;50.984;7.022;2023-02-19T04:09:42;8.17;;;5.13;;
12445;SDS011;6287;50.984;7.022;2023-02-19T04:12:12;11.10;;;4.53;;
12445;SDS011;6287;50.984;7.022;2023-02-19T04:14:41;9.90;;;5.43;;
12445;SDS011;6287;50.984;7.022;2023-02-19T04:17:11;10.03;;;5.77;;
12445;SDS011;6287;50.984;7.022;2023-02-19T04:19:44;9.03;;;5.57;;
12445;SDS011;6287;50.984;7.022;2023-02-19T04:22:13;8.03;;;5.33;;
12445;SDS011;6287;50.984;7.022;2023-02-19T04:24:49;8.53;;;4.63;;
12445;SDS011;6287;50.984;7.022;2023-02-19T04:27:17;10.00;;;5.53;;
12445;SDS011;6287;50.984;7.022;2023-02-19T04:29:43;11.90;;;5.73;;
12445;SDS011;6287;50.984;7.022;2023-02-19T04:32:12;11.77;;;5.60;;
12445;SDS011;6287;50.984;7.022;2023-02-19T04:34:40;11.90;;;6.90;;
12445;SDS011;6287;50.984;7.022;2023-02-19T04:37:06;10.77;;;6.67;;
12445;SDS011;6287;50.984;7.022;2023-02-19T04:39:32;10.80;;;7.23;;
12445;SDS011;6287;50.984;7.022;2023-02-19T04:41:57;12.10;;;6.23;;
12445;SDS011;6287;50.984;7.022;2023-02-19T04:44:23;9.87;;;6.07;;
12445;SDS011;6287;50.984;7.022;2023-02-19T04:46:49;9.43;;;6.13;;
12445;SDS011;6287;50.984;7.022;2023-02-19T04:49:19;9.13;;;5.90;;
12445;SDS011;6287;50.984;7.022;2023-02-19T04:51:47;13.30;;;6.43;;
12445;SDS011;6287;50.984;7.022;2023-02-19T04:54:12;13.43;;;6.23;;
12445;SDS011;6287;50.984;7.022;2023-02-19T04:56:38;9.37;;;6.10;;
12445;SDS011;6287;50.984;7.022;2023-02-19T04:59:06;9.90;;;6.20;;
12445;SDS011;6287;50.984;7.022;2023-02-19T05:01:31;10.27;;;6.27;;
12445;SDS011;6287;50.984;7.022;2023-02-19T05:03:57;9.50;;;5.83;;
12445;SDS011;6287;50.984;7.022;2023-02-19T05:06:25;13.30;;;5.93;;
12445;SDS011;6287;50.984;7.022;2023-02-19T05:08:53;13.53;;;7.20;;
12445;SDS011;6287;50.984;7.022;2023-02-19T05:11:19;14.07;;;7.53;;
12445;SDS011;6287;50.984;7.022;2023-02-19T05:13:47;12.30;;;7.07;;
12445;SDS011;6287;50.984;7.022;2023-02-19T05:16:13;11.43;;;7.03;;
12445;SDS011;6287;50.984;7.022;2023-02-19T05:18:47;14.87;;;7.53;;
12445;SDS011;6287;50.984;7.022;2023-02-19T05:21:16;13.10;;;7.00;;
12445;SDS011;6287;50.984;7.022;2023-02-19T05:23:42;14.03;;;7.93;;
12445;SDS011;6287;50.984;7.022;2023-02-19T05:26:11;13.17;;;6.97;;
12445;SDS011;6287;50.984;7.022;2023-02-19T05:28:46;12.13;;;6.27;;
12445;SDS011;6287;50.984;7.022;2023-02-19T05:31:16;11.97;;;6.27;;
12445;SDS011;6287;50.984;7.022;2023-02-19T05:33:45;12.43;;;6.77;;
12445;SDS011;6287;50.984;7.022;2023-02-19T05:36:14;12.50;;;6.73;;
12445;SDS011;6287;50.984;7.022;2023-02-19T05:38:41;12.53;;;6.83;;
12445;SDS011;6287;50.984;7.022;2023-02-19T05:43:40;11.87;;;6.80;;
12445;SDS011;6287;50.984;7.022;2023-02-19T05:46:12;11.40;;;7.27;;
12445;SDS011;6287;50.984;7.022;2023-02-19T05:48:39;15.00;;;7.27;;
12445;SDS011;6287;50.984;7.022;2023-02-19T05:51:12;13.63;;;6.73;;
12445;SDS011;6287;50.984;7.022;2023-02-19T05:53:41;12.77;;;6.87;;
12445;SDS011;6287;50.984;7.022;2023-02-19T05:58:57;14.03;;;6.90;;
12445;SDS011;6287;50.984;7.022;2023-02-19T06:01:25;14.53;;;6.73;;
12445;SDS011;6287;50.984;7.022;2023-02-19T06:03:52;12.87;;;6.60;;
12445;SDS011;6287;50.984;7.022;2023-02-19T06:06:21;10.83;;;6.83;;
12445;SDS011;6287;50.984;7.022;2023-02-19T06:08:49;11.07;;;6.67;;
12445;SDS011;6287;50.984;7.022;2023-02-19T06:11:17;9.80;;;6.47;;
12445;SDS011;6287;50.984;7.022;2023-02-19T06:13:43;9.23;;;5.83;;
12445;SDS011;6287;50.984;7.022;2023-02-19T06:16:14;14.00;;;6.97;;
12445;SDS011;6287;50.984;7.022;2023-02-19T06:18:41;10.43;;;6.40;;
12445;SDS011;6287;50.984;7.022;2023-02-19T06:21:10;10.20;;;6.90;;
12445;SDS011;6287;50.984;7.022;2023-02-19T06:23:36;11.47;;;6.67;;
12445;SDS011;6287;50.984;7.022;2023-02-19T06:28:38;13.00;;;6.77;;
12445;SDS011;6287;50.984;7.022;2023-02-19T06:31:09;11.40;;;7.10;;
12445;SDS011;6287;50.984;7.022;2023-02-19T06:33:38;11.80;;;7.63;;
12445;SDS011;6287;50.984;7.022;2023-02-19T06:36:04;13.73;;;6.87;;
12445;SDS011;6287;50.984;7.022;2023-02-19T06:38:31;12.70;;;7.07;;
12445;SDS011;6287;50.984;7.022;2023-02-19T06:41:01;15.07;;;7.73;;
12445;SDS011;6287;50.984;7.022;2023-02-19T06:43:32;13.43;;;6.87;;
12445;SDS011;6287;50.984;7.022;2023-02-19T06:46:01;11.60;;;6.83;;
12445;SDS011;6287;50.984;7.022;2023-02-19T06:48:28;11.87;;;6.83;;
12445;SDS011;6287;50.984;7.022;2023-02-19T06:50:55;16.33;;;6.73;;
12445;SDS011;6287;50.984;7.022;2023-02-19T06:53:24;13.43;;;6.93;;
12445;SDS011;6287;50.984;7.022;2023-02-19T06:55:56;12.47;;;6.63;;
12445;SDS011;6287;50.984;7.022;2023-02-19T06:58:27;14.80;;;6.43;;
12445;SDS011;6287;50.984;7.022;2023-02-19T07:00:56;12.70;;;6.87;;
12445;SDS011;6287;50.984;7.022;2023-02-19T07:03:22;10.57;;;6.40;;
12445;SDS011;6287;50.984;7.022;2023-02-19T07:05:47;8.77;;;5.97;;
12445;SDS011;6287;50.984;7.022;2023-02-19T07:08:16;14.67;;;7.50;;
12445;SDS011;6287;50.984;7.022;2023-02-19T07:10:44;13.97;;;6.53;;
12445;SDS011;6287;50.984;7.022;2023-02-19T07:13:10;12.70;;;6.33;;
12445;SDS011;6287;50.984;7.022;2023-02-19T07:15:37;9.50;;;6.10;;
12445;SDS011;6287;50.984;7.022;2023-02-19T07:18:03;12.33;;;6.43;;
12445;SDS011;6287;50.984;7.022;2023-02-19T07:20:31;12.87;;;6.33;;
12445;SDS011;6287;50.984;7.022;2023-02-19T07:22:56;10.77;;;6.33;;
12445;SDS011;6287;50.984;7.022;2023-02-19T07:25:22;11.70;;;6.07;;
12445;SDS011;6287;50.984;7.022;2023-02-19T07:27:50;12.00;;;6.50;;
12445;SDS011;6287;50.984;7.022;2023-02-19T07:30:15;14.63;;;5.93;;
12445;SDS011;6287;50.984;7.022;2023-02-19T07:32:41;7.23;;;4.43;;
12445;SDS011;6287;50.984;7.022;2023-02-19T07:35:09;7.77;;;5.30;;
12445;SDS011;6287;50.984;7.022;2023-02-19T07:37:35;11.77;;;5.00;;
12445;SDS011;6287;50.984;7.022;2023-02-19T07:40:04;8.67;;;5.40;;
12445;SDS011;6287;50.984;7.022;2023-02-19T07:42:30;10.03;;;5.13;;
12445;SDS011;6287;50.984;7.022;2023-02-19T07:44:56;9.10;;;4.57;;
12445;SDS011;6287;50.984;7.022;2023-02-19T07:47:21;13.03;;;5.47;;
12445;SDS011;6287;50.984;7.022;2023-02-19T07:49:47;9.07;;;4.63;;
12445;SDS011;6287;50.984;7.022;2023-02-19T07:52:12;7.47;;;4.77;;
12445;SDS011;6287;50.984;7.022;2023-02-19T07:54:40;8.50;;;4.73;;
12445;SDS011;6287;50.984;7.022;2023-02-19T07:57:08;8.50;;;5.10;;
12445;SDS011;6287;50.984;7.022;2023-02-19T07:59:34;11.47;;;5.57;;
12445;SDS011;6287;50.984;7.022;2023-02-19T08:01:59;9.27;;;5.57;;
12445;SDS011;6287;50.984;7.022;2023-02-19T08:04:49;9.50;;;5.93;;
12445;SDS011;6287;50.984;7.022;2023-02-19T08:07:14;12.47;;;6.10;;
12445;SDS011;6287;50.984;7.022;2023-02-19T08:09:40;11.67;;;5.83;;
12445;SDS011;6287;50.984;7.022;2023-02-19T08:12:05;11.00;;;5.70;;
12445;SDS011;6287;50.984;7.022;2023-02-19T08:14:51;10.50;;;5.30;;
12445;SDS011;6287;50.984;7.022;2023-02-19T08:17:17;7.93;;;4.97;;
12445;SDS011;6287;50.984;7.022;2023-02-19T08:19:45;10.37;;;5.57;;
12445;SDS011;6287;50.984;7.022;2023-02-19T08:22:12;6.77;;;4.53;;
12445;SDS011;6287;50.984;7.022;2023-02-19T08:24:41;9.90;;;4.53;;
12445;SDS011;6287;50.984;7.022;2023-02-19T08:27:09;12.67;;;5.30;;
12445;SDS011;6287;50.984;7.022;2023-02-19T08:29:34;7.97;;;5.17;;
12445;SDS011;6287;50.984;7.022;2023-02-19T08:32:02;8.83;;;4.60;;
12445;SDS011;6287;50.984;7.022;2023-02-19T08:34:28;10.23;;;5.47;;
12445;SDS011;6287;50.984;7.022;2023-02-19T08:36:56;9.13;;;5.83;;
12445;SDS011;6287;50.984;7.022;2023-02-19T08:39:22;11.10;;;5.47;;
12445;SDS011;6287;50.984;7.022;2023-02-19T08:41:47;12.80;;;5.80;;
12445;SDS011;6287;50.984;7.022;2023-02-19T08:44:15;11.23;;;5.43;;
12445;SDS011;6287;50.984;7.022;2023-02-19T08:46:41;9.50;;;5.50;;
12445;SDS011;6287;50.984;7.022;2023-02-19T08:49:09;11.90;;;4.90;;
12445;SDS011;6287;50.984;7.022;2023-02-19T08:51:38;8.90;;;4.60;;
12445;SDS011;6287;50.984;7.022;2023-02-19T08:54:03;9.33;;;5.03;;
12445;SDS011;6287;50.984;7.022;2023-02-19T08:56:29;9.10;;;5.00;;
12445;SDS011;6287;50.984;7.022;2023-02-19T08:58:54;10.63;;;4.80;;
12445;SDS011;6287;50.984;7.022;2023-02-19T09:01:24;12.10;;;4.67;;
12445;SDS011;6287;50.984;7.022;2023-02-19T09:03:51;8.73;;;4.50;;
12445;SDS011;6287;50.984;7.022;2023-02-19T09:06:19;9.43;;;4.73;;
12445;SDS011;6287;50.984;7.022;2023-02-19T09:08:49;8.33;;;4.50;;
12445;SDS011;6287;50.984;7.022;2023-02-19T09:11:17;13.73;;;4.70;;
12445;SDS011;6287;50.984;7.022;2023-02-19T09:13:43;13.60;;;5.10;;
12445;SDS011;6287;50.984;7.022;2023-02-19T09:16:09;10.17;;;4.03;;
12445;SDS011;6287;50.984;7.022;2023-02-19T09:18:37;11.97;;;4.03;;
12445;SDS011;6287;50.984;7.022;2023-02-19T09:21:04;9.20;;;4.70;;
12445;SDS011;6287;50.984;7.022;2023-02-19T09:23:34;9.67;;;4.20;;
12445;SDS011;6287;50.984;7.022;2023-02-19T09:26:01;7.40;;;4.33;;
12445;SDS011;6287;50.984;7.022;2023-02-19T09:28:30;12.20;;;5.07;;
12445;SDS011;6287;50.984;7.022;2023-02-19T09:31:02;8.43;;;4.60;;
12445;SDS011;6287;50.984;7.022;2023-02-19T09:33:34;8.17;;;4.93;;
12445;SDS011;6287;50.984;7.022;2023-02-19T09:36:00;6.13;;;4.13;;
12445;SDS011;6287;50.984;7.022;2023-02-19T09:38:29;7.80;;;4.13;;
12445;SDS011;6287;50.984;7.022;2023-02-19T09:40:55;6.80;;;4.10;;
12445;SDS011;6287;50.984;7.022;2023-02-19T09:43:22;6.63;;;4.20;;
12445;SDS011;6287;50.984;7.022;2023-02-19T09:46:02;8.03;;;4.33;;
12445;SDS011;6287;50.984;7.022;2023-02-19T09:48:33;7.63;;;3.83;;
12445;SDS011;6287;50.984;7.022;2023-02-19T09:50:59;8.57;;;3.77;;
12445;SDS011;6287;50.984;7.022;2023-02-19T09:53:28;6.87;;;4.20;;
12445;SDS011;6287;50.984;7.022;2023-02-19T09:56:04;6.47;;;2.90;;
12445;SDS011;6287;50.984;7.022;2023-02-19T09:58:39;4.30;;;2.90;;
12445;SDS011;6287;50.984;7.022;2023-02-19T10:01:13;5.00;;;2.80;;
12445;SDS011;6287;50.984;7.022;2023-02-19T10:03:46;6.27;;;3.63;;
12445;SDS011;6287;50.984;7.022;2023-02-19T10:08:38;7.07;;;2.90;;
12445;SDS011;6287;50.984;7.022;2023-02-19T10:11:08;5.20;;;4.00;;
12445;SDS011;6287;50.984;7.022;2023-02-19T10:13:40;4.87;;;2.97;;
12445;SDS011;6287;50.984;7.022;2023-02-19T10:16:06;5.80;;;3.10;;
12445;SDS011;6287;50.984;7.022;2023-02-19T10:18:43;5.97;;;2.90;;
12445;SDS011;6287;50.984;7.022;2023-02-19T10:21:27;6.90;;;3.20;;
12445;SDS011;6287;50.984;7.022;2023-02-19T10:23:58;2.83;;;2.43;;
12445;SDS011;6287;50.984;7.022;2023-02-19T10:26:29;6.77;;;2.47;;
12445;SDS011;6287;50.984;7.022;2023-02-19T10:29:01;4.30;;;2.57;;
12445;SDS011;6287;50.984;7.022;2023-02-19T10:31:29;5.93;;;2.87;;
12445;SDS011;6287;50.984;7.022;2023-02-19T10:33:59;3.73;;;2.60;;
12445;SDS011;6287;50.984;7.022;2023-02-19T10:36:30;5.40;;;3.03;;
12445;SDS011;6287;50.984;7.022;2023-02-19T10:39:50;5.13;;;3.10;;
12445;SDS011;6287;50.984;7.022;2023-02-19T10:41:58;4.00;;;3.27;;
12445;SDS011;6287;50.984;7.022;2023-02-19T10:44:25;7.10;;;3.57;;
12445;SDS011;6287;50.984;7.022;2023-02-19T10:46:56;7.10;;;3.03;;
12445;SDS011;6287;50.984;7.022;2023-02-19T10:51:56;3.27;;;2.97;;
12445;SDS011;6287;50.984;7.022;2023-02-19T10:54:27;4.13;;;3.33;;
12445;SDS011;6287;50.984;7.022;2023-02-19T11:02:16;6.50;;;3.37;;
12445;SDS011;6287;50.984;7.022;2023-02-19T11:07:28;6.83;;;3.57;;
12445;SDS011;6287;50.984;7.022;2023-02-19T11:09:57;9.73;;;3.50;;
12445;SDS011;6287;50.984;7.022;2023-02-19T11:12:29;5.90;;;3.93;;
12445;SDS011;6287;50.984;7.022;2023-02-19T11:14:59;5.53;;;4.10;;
12445;SDS011;6287;50.984;7.022;2023-02-19T11:17:39;10.17;;;4.13;;
12445;SDS011;6287;50.984;7.022;2023-02-19T11:20:06;6.73;;;3.93;;
12445;SDS011;6287;50.984;7.022;2023-02-19T11:22:39;7.67;;;3.73;;
12445;SDS011;6287;50.984;7.022;2023-02-19T11:30:36;6.47;;;4.23;;
12445;SDS011;6287;50.984;7.022;2023-02-19T11:33:12;8.83;;;4.03;;
12445;SDS011;6287;50.984;7.022;2023-02-19T11:35:49;7.80;;;4.10;;
12445;SDS011;6287;50.984;7.022;2023-02-19T11:38:24;4.93;;;4.03;;
12445;SDS011;6287;50.984;7.022;2023-02-19T11:54:32;6.23;;;3.60;;
12445;SDS011;6287;50.984;7.022;2023-02-19T12:29:40;3.67;;;2.70;;
12445;SDS011;6287;50.984;7.022;2023-02-19T12:34:52;5.33;;;2.60;;
12445;SDS011;6287;50.984;7.022;2023-02-19T12:43:17;4.20;;;2.60;;
12445;SDS011;6287;50.984;7.022;2023-02-19T12:51:11;2.97;;;2.33;;
12445;SDS011;6287;50.984;7.022;2023-02-19T12:53:43;2.17;;;1.67;;
12445;SDS011;6287;50.984;7.022;2023-02-19T12:56:22;3.63;;;2.47;;
12445;SDS011;6287;50.984;7.022;2023-02-19T12:59:14;5.00;;;2.30;;
12445;SDS011;6287;50.984;7.022;2023-02-19T13:01:49;3.33;;;2.17;;
12445;SDS011;6287;50.984;7.022;2023-02-19T13:04:33;4.27;;;2.20;;
12445;SDS011;6287;50.984;7.022;2023-02-19T13:07:19;4.67;;;2.33;;
12445;SDS011;6287;50.984;7.022;2023-02-19T13:09:50;2.47;;;1.93;;
12445;SDS011;6287;50.984;7.022;2023-02-19T13:12:25;4.80;;;2.30;;
12445;SDS011;6287;50.984;7.022;2023-02-19T13:14:55;5.70;;;2.27;;
12445;SDS011;6287;50.984;7.022;2023-02-19T13:17:49;3.07;;;2.00;;
12445;SDS011;6287;50.984;7.022;2023-02-19T13:20:29;5.37;;;1.93;;
12445;SDS011;6287;50.984;7.022;2023-02-19T13:28:19;2.50;;;1.97;;
12445;SDS011;6287;50.984;7.022;2023-02-19T13:36:12;3.13;;;2.00;;
12445;SDS011;6287;50.984;7.022;2023-02-19T13:38:49;4.60;;;2.10;;
12445;SDS011;6287;50.984;7.022;2023-02-19T13:41:17;3.57;;;2.27;;
12445;SDS011;6287;50.984;7.022;2023-02-19T13:43:53;2.77;;;2.30;;
12445;SDS011;6287;50.984;7.022;2023-02-19T13:46:24;2.43;;;1.83;;
12445;SDS011;6287;50.984;7.022;2023-02-19T13:52:02;2.03;;;1.80;;
12445;SDS011;6287;50.984;7.022;2023-02-19T14:00:56;2.03;;;1.90;;
12445;SDS011;6287;50.984;7.022;2023-02-19T14:03:44;4.93;;;2.50;;
12445;SDS011;6287;50.984;7.022;2023-02-19T14:06:12;5.93;;;2.20;;
12445;SDS011;6287;50.984;7.022;2023-02-19T14:11:15;3.47;;;1.90;;
12445;SDS011;6287;50.984;7.022;2023-02-19T14:14:01;2.03;;;1.83;;
12445;SDS011;6287;50.984;7.022;2023-02-19T14:16:48;2.17;;;1.90;;
12445;SDS011;6287;50.984;7.022;2023-02-19T14:19:42;3.53;;;2.50;;
12445;SDS011;6287;50.984;7.022;2023-02-19T14:30:34;4.27;;;3.17;;
12445;SDS011;6287;50.984;7.022;2023-02-19T14:33:09;3.03;;;2.73;;
12445;SDS011;6287;50.984;7.022;2023-02-19T14:35:39;5.03;;;2.90;;
12445;SDS011;6287;50.984;7.022;2023-02-19T14:38:54;4.33;;;3.03;;
12445;SDS011;6287;50.984;7.022;2023-02-19T14:41:04;4.43;;;3.23;;
12445;SDS011;6287;50.984;7.022;2023-02-19T14:43:34;7.93;;;3.57;;
12445;SDS011;6287;50.984;7.022;2023-02-19T14:46:03;4.83;;;3.20;;
12445;SDS011;6287;50.984;7.022;2023-02-19T14:48:41;4.27;;;3.30;;
12445;SDS011;6287;50.984;7.022;2023-02-19T14:51:13;4.57;;;3.50;;
12445;SDS011;6287;50.984;7.022;2023-02-19T14:53:48;4.43;;;3.83;;
12445;SDS011;6287;50.984;7.022;2023-02-19T14:56:20;5.37;;;4.23;;
12445;SDS011;6287;50.984;7.022;2023-02-19T15:01:39;6.17;;;4.13;;
12445;SDS011;6287;50.984;7.022;2023-02-19T15:04:05;6.43;;;4.30;;
12445;SDS011;6287;50.984;7.022;2023-02-19T15:06:44;5.80;;;4.10;;
12445;SDS011;6287;50.984;7.022;2023-02-19T15:09:13;8.33;;;4.33;;
12445;SDS011;6287;50.984;7.022;2023-02-19T15:11:40;6.93;;;4.37;;
12445;SDS011;6287;50.984;7.022;2023-02-19T15:14:07;8.23;;;5.43;;
12445;SDS011;6287;50.984;7.022;2023-02-19T15:16:44;8.20;;;5.03;;
12445;SDS011;6287;50.984;7.022;2023-02-19T15:19:11;6.73;;;4.63;;
12445;SDS011;6287;50.984;7.022;2023-02-19T15:21:39;7.77;;;4.53;;
12445;SDS011;6287;50.984;7.022;2023-02-19T15:24:10;7.27;;;4.93;;
12445;SDS011;6287;50.984;7.022;2023-02-19T15:26:41;9.33;;;5.43;;
12445;SDS011;6287;50.984;7.022;2023-02-19T15:29:16;8.27;;;4.93;;
12445;SDS011;6287;50.984;7.022;2023-02-19T15:31:43;6.27;;;4.73;;
12445;SDS011;6287;50.984;7.022;2023-02-19T15:34:29;8.37;;;5.07;;
12445;SDS011;6287;50.984;7.022;2023-02-19T15:36:57;10.07;;;4.87;;
12445;SDS011;6287;50.984;7.022;2023-02-19T15:42:09;9.73;;;4.53;;
12445;SDS011;6287;50.984;7.022;2023-02-19T15:44:45;11.07;;;5.97;;
12445;SDS011;6287;50.984;7.022;2023-02-19T15:47:17;9.57;;;5.70;;
12445;SDS011;6287;50.984;7.022;2023-02-19T15:50:43;10.40;;;5.87;;
12445;SDS011;6287;50.984;7.022;2023-02-19T15:55:46;8.60;;;5.77;;
12445;SDS011;6287;50.984;7.022;2023-02-19T16:03:23;10.43;;;6.57;;
12445;SDS011;6287;50.984;7.022;2023-02-19T16:08:40;13.87;;;8.40;;
12445;SDS011;6287;50.984;7.022;2023-02-19T16:16:40;10.27;;;6.57;;
12445;SDS011;6287;50.984;7.022;2023-02-19T16:19:06;9.90;;;6.00;;
12445;SDS011;6287;50.984;7.022;2023-02-19T16:21:35;12.20;;;6.47;;
12445;SDS011;6287;50.984;7.022;2023-02-19T16:24:13;8.60;;;5.67;;
12445;SDS011;6287;50.984;7.022;2023-02-19T16:26:48;9.10;;;5.27;;
12445;SDS011;6287;50.984;7.022;2023-02-19T16:29:20;8.40;;;5.60;;
12445;SDS011;6287;50.984;7.022;2023-02-19T16:31:59;11.87;;;7.10;;
12445;SDS011;6287;50.984;7.022;2023-02-19T16:34:38;12.30;;;6.37;;
12445;SDS011;6287;50.984;7.022;2023-02-19T16:42:37;7.40;;;5.00;;
12445;SDS011;6287;50.984;7.022;2023-02-19T16:45:26;8.17;;;4.90;;
12445;SDS011;6287;50.984;7.022;2023-02-19T16:47:57;13.40;;;5.67;;
12445;SDS011;6287;50.984;7.022;2023-02-19T16:50:24;12.00;;;6.20;;
12445;SDS011;6287;50.984;7.022;2023-02-19T16:52:54;8.67;;;6.67;;
12445;SDS011;6287;50.984;7.022;2023-02-19T16:55:21;11.03;;;6.30;;
12445;SDS011;6287;50.984;7.022;2023-02-19T16:57:47;12.07;;;6.67;;
12445;SDS011;6287;50.984;7.022;2023-02-19T17:02:52;9.80;;;6.13;;
12445;SDS011;6287;50.984;7.022;2023-02-19T17:05:20;8.63;;;6.37;;
12445;SDS011;6287;50.984;7.022;2023-02-19T17:07:50;8.53;;;6.17;;
12445;SDS011;6287;50.984;7.022;2023-02-19T17:10:24;8.87;;;5.47;;
12445;SDS011;6287;50.984;7.022;2023-02-19T17:12:52;12.07;;;6.57;;
12445;SDS011;6287;50.984;7.022;2023-02-19T17:15:25;9.23;;;6.00;;
12445;SDS011;6287;50.984;7.022;2023-02-19T17:17:54;10.43;;;6.50;;
12445;SDS011;6287;50.984;7.022;2023-02-19T17:22:51;9.17;;;5.60;;
12445;SDS011;6287;50.984;7.022;2023-02-19T17:25:20;9.57;;;6.00;;
12445;SDS011;6287;50.984;7.022;2023-02-19T17:27:51;10.63;;;6.40;;
12445;SDS011;6287;50.984;7.022;2023-02-19T17:30:29;7.83;;;4.73;;
12445;SDS011;6287;50.984;7.022;2023-02-19T17:32:56;9.47;;;4.77;;
12445;SDS011;6287;50.984;7.022;2023-02-19T17:35:22;3.87;;;2.70;;
12445;SDS011;6287;50.984;7.022;2023-02-19T17:37:47;3.67;;;2.80;;
12445;SDS011;6287;50.984;7.022;2023-02-19T17:40:21;4.30;;;2.80;;
12445;SDS011;6287;50.984;7.022;2023-02-19T17:42:51;3.37;;;2.53;;
12445;SDS011;6287;50.984;7.022;2023-02-19T17:45:19;3.57;;;2.40;;
12445;SDS011;6287;50.984;7.022;2023-02-19T17:47:48;3.37;;;2.50;;
12445;SDS011;6287;50.984;7.022;2023-02-19T17:50:15;3.70;;;2.67;;
12445;SDS011;6287;50.984;7.022;2023-02-19T17:52:43;2.90;;;2.60;;
12445;SDS011;6287;50.984;7.022;2023-02-19T17:55:10;2.30;;;2.10;;
12445;SDS011;6287;50.984;7.022;2023-02-19T17:57:39;3.53;;;2.20;;
12445;SDS011;6287;50.984;7.022;2023-02-19T18:00:06;2.10;;;2.00;;
12445;SDS011;6287;50.984;7.022;2023-02-19T18:02:32;2.00;;;1.73;;
12445;SDS011;6287;50.984;7.022;2023-02-19T18:04:58;1.40;;;1.30;;
12445;SDS011;6287;50.984;7.022;2023-02-19T18:07:23;1.70;;;1.27;;
12445;SDS011;6287;50.984;7.022;2023-02-19T18:09:49;2.73;;;1.83;;
12445;SDS011;6287;50.984;7.022;2023-02-19T18:12:17;1.23;;;1.17;;
12445;SDS011;6287;50.984;7.022;2023-02-19T18:14:44;4.90;;;2.90;;
12445;SDS011;6287;50.984;7.022;2023-02-19T18:17:12;4.50;;;2.50;;
12445;SDS011;6287;50.984;7.022;2023-02-19T18:19:42;2.90;;;1.50;;
12445;SDS011;6287;50.984;7.022;2023-02-19T18:22:09;2.20;;;2.00;;
12445;SDS011;6287;50.984;7.022;2023-02-19T18:24:35;1.67;;;1.40;;
12445;SDS011;6287;50.984;7.022;2023-02-19T18:27:00;0.93;;;0.93;;
12445;SDS011;6287;50.984;7.022;2023-02-19T18:29:28;0.90;;;0.90;;
12445;SDS011;6287;50.984;7.022;2023-02-19T18:31:57;0.97;;;0.90;;
12445;SDS011;6287;50.984;7.022;2023-02-19T18:34:25;3.07;;;2.40;;
12445;SDS011;6287;50.984;7.022;2023-02-19T18:36:50;1.60;;;1.50;;
12445;SDS011;6287;50.984;7.022;2023-02-19T18:39:18;1.03;;;0.93;;